Time;durP1;ratioP1;P1;durP2;ratioP2;P2;SDS_P1;SDS_P2;PMS_P1;PMS_P2;Temp;Humidity;BMP_temperature;BMP_pressure;BME280_temperature;BME280_humidity;BME280_pressure;Samples;Min_cycle;Max_cycle;Signal;HPM_P1;HPM_P2
2022/10/27 00:00:35;;;;;;;38.98;22.67;;;;;;;4.50;92.14;95480.33;1680489;83;21032;-60
2022/10/27 00:03:01;;;;;;;36.08;22.17;;;;;;;4.48;92.19;95478.58;1692266;83;21058;-58
2022/10/27 00:05:28;;;;;;;36.85;20.77;;;;;;;4.47;92.33;95485.20;1713114;83;21179;-59
2022/10/27 00:07:55;;;;;;;35.28;19.90;;;;;;;4.49;92.70;95484.22;1702505;83;21653;-59
2022/10/27 00:10:21;;;;;;;48.15;27.48;;;;;;;4.59;93.05;95485.38;1693602;83;21137;-58
2022/10/27 00:12:50;;;;;;;56.48;30.62;;;;;;;4.61;92.64;95489.25;1698009;83;21660;-59
2022/10/27 00:15:18;;;;;;;69.40;35.45;;;;;;;4.61;92.50;95489.84;1701109;83;20946;-59
2022/10/27 00:17:44;;;;;;;58.08;33.42;;;;;;;4.59;92.47;95484.78;1710067;83;21154;-58
2022/10/27 00:20:11;;;;;;;39.55;24.67;;;;;;;4.60;92.60;95490.42;1711120;83;21058;-58
2022/10/27 00:22:39;;;;;;;38.20;22.30;;;;;;;4.60;92.37;95484.20;1680194;83;20983;-58
2022/10/27 00:25:06;;;;;;;43.50;22.58;;;;;;;4.60;92.03;95492.38;1706819;83;21002;-60
2022/10/27 00:27:33;;;;;;;46.45;25.52;;;;;;;4.60;91.94;95484.97;1708267;83;20999;-59
2022/10/27 00:30:01;;;;;;;54.38;27.60;;;;;;;4.63;91.94;95492.95;1696719;84;21264;-59
2022/10/27 00:32:28;;;;;;;58.28;29.63;;;;;;;4.63;91.85;95486.91;1703142;83;20944;-58
2022/10/27 00:34:55;;;;;;;54.75;30.40;;;;;;;4.66;91.84;95492.97;1709773;83;21018;-58
2022/10/27 00:37:22;;;;;;;50.20;28.10;;;;;;;4.64;91.45;95498.60;1701507;83;21101;-59
2022/10/27 00:39:48;;;;;;;42.30;25.05;;;;;;;4.57;91.27;95502.70;1705521;83;21130;-59
2022/10/27 00:42:15;;;;;;;46.92;26.93;;;;;;;4.47;91.20;95511.08;1705491;83;21549;-59
2022/10/27 00:44:45;;;;;;;55.85;30.40;;;;;;;4.44;91.46;95513.19;1706281;84;21055;-59
2022/10/27 00:47:25;;;;;;;43.05;26.17;;;;;;;4.39;91.39;95510.86;1680648;84;21061;-59
2022/10/27 00:50:02;;;;;;;41.98;24.72;;;;;;;4.32;91.39;95506.78;1690046;83;21113;-59
2022/10/27 00:52:40;;;;;;;42.50;25.08;;;;;;;4.26;91.62;95502.11;1697573;82;21083;-59
2022/10/27 00:55:26;;;;;;;61.00;28.85;;;;;;;4.21;91.61;95507.35;1699583;83;21266;-60
2022/10/27 00:57:56;;;;;;;79.05;33.40;;;;;;;4.15;91.57;95503.47;1691329;83;21001;-59
2022/10/27 01:00:22;;;;;;;62.48;32.70;;;;;;;4.13;92.07;95505.80;1703585;83;21022;-59
2022/10/27 01:02:49;;;;;;;49.25;29.18;;;;;;;4.14;92.50;95505.99;1707578;83;21133;-59
2022/10/27 01:05:27;;;;;;;48.83;28.75;;;;;;;4.18;93.00;95501.89;1668352;83;21066;-58
2022/10/27 01:07:58;;;;;;;39.92;22.87;;;;;;;4.21;92.97;95503.27;1696988;83;21272;-58
2022/10/27 01:10:26;;;;;;;34.95;21.50;;;;;;;4.21;92.80;95492.38;1689708;83;20987;-59
2022/10/27 01:12:54;;;;;;;29.75;19.37;;;;;;;4.20;92.44;95496.27;1692557;83;21493;-59
2022/10/27 01:15:38;;;;;;;36.88;20.15;;;;;;;4.17;92.49;95488.87;1709896;83;21059;-58
2022/10/27 01:18:36;;;;;;;32.93;20.00;;;;;;;4.16;92.40;95498.21;1698794;83;21038;-59
2022/10/27 01:21:28;;;;;;;56.23;26.25;;;;;;;4.18;92.67;95497.81;1701068;84;20960;-58
2022/10/27 01:24:23;;;;;;;58.58;30.15;;;;;;;4.20;92.71;95498.98;1697666;83;21053;-58
2022/10/27 01:26:57;;;;;;;60.25;30.95;;;;;;;4.15;92.40;95507.55;1708048;83;21531;-58
2022/10/27 01:30:07;;;;;;;46.53;28.90;;;;;;;4.12;92.36;95497.44;1699881;83;21138;-59
2022/10/27 01:33:06;;;;;;;45.90;28.38;;;;;;;4.10;92.78;95503.86;1705114;82;21574;-58
2022/10/27 01:35:56;;;;;;;50.48;30.45;;;;;;;4.06;92.74;95512.58;1696821;83;21289;-59
2022/10/27 01:38:28;;;;;;;40.90;25.77;;;;;;;4.04;92.90;95512.78;1677716;84;20983;-59
2022/10/27 01:41:13;;;;;;;38.80;22.67;;;;;;;4.05;93.02;95502.09;1713771;83;21493;-59
2022/10/27 01:43:39;;;;;;;47.60;26.80;;;;;;;4.09;93.14;95500.91;1709787;83;21015;-59
2022/10/27 01:46:08;;;;;;;62.00;36.28;;;;;;;4.15;93.19;95504.83;1669508;83;20998;-59
2022/10/27 01:48:35;;;;;;;60.10;34.95;;;;;;;4.18;93.17;95501.33;1712357;83;21751;-59
2022/10/27 01:51:02;;;;;;;86.00;44.58;;;;;;;4.17;92.89;95500.34;1707478;83;21018;-57
2022/10/27 01:53:32;;;;;;;82.17;45.58;;;;;;;4.14;92.79;95498.39;1704851;82;21016;-58
2022/10/27 01:56:13;;;;;;;84.95;44.90;;;;;;;4.13;92.50;95509.09;1701790;83;21096;-59
2022/10/27 01:59:17;;;;;;;68.60;38.65;;;;;;;4.15;92.64;95507.55;1714566;83;21122;-59
2022/10/27 02:02:07;;;;;;;51.20;28.17;;;;;;;4.17;92.61;95505.22;1695757;83;21235;-59
2022/10/27 02:04:46;;;;;;;64.30;30.45;;;;;;;4.14;92.29;95497.83;1688361;83;20982;-58
2022/10/27 02:07:31;;;;;;;53.90;27.95;;;;;;;4.05;92.06;95498.77;1701701;83;21011;-59
2022/10/27 02:10:16;;;;;;;45.98;26.95;;;;;;;3.95;92.22;95495.47;1690708;83;20979;-58
2022/10/27 02:12:43;;;;;;;40.88;23.57;;;;;;;3.98;92.70;95500.13;1693924;83;21018;-59
2022/10/27 02:15:22;;;;;;;45.03;22.87;;;;;;;4.02;92.53;95502.88;1701952;83;21278;-59
2022/10/27 02:17:50;;;;;;;51.65;28.07;;;;;;;4.01;92.58;95497.99;1696654;83;21107;-60
2022/10/27 02:20:23;;;;;;;43.45;25.62;;;;;;;3.99;92.49;95509.86;1697599;83;21095;-59
2022/10/27 02:22:51;;;;;;;;;;;;;;;3.99;92.49;95503.62;1702649;83;21014;-59
2022/10/27 02:25:21;;;;;;;58.20;28.10;;;;;;;4.00;92.74;95503.24;1699031;83;20151;-59
2022/10/27 02:27:48;;;;;;;62.08;34.25;;;;;;;4.08;92.97;95504.80;1711359;83;21315;-59
2022/10/27 02:30:15;;;;;;;46.23;29.67;;;;;;;4.13;92.56;95508.52;1682758;84;21071;-60
2022/10/27 02:32:43;;;;;;;42.30;25.92;;;;;;;4.21;92.61;95510.67;1710056;82;21023;-59
2022/10/27 02:35:10;;;;;;;49.60;28.20;;;;;;;4.20;91.97;95513.96;1693809;83;21002;-59
2022/10/27 02:37:40;;;;;;;62.70;28.02;;;;;;;4.19;91.81;95513.77;1685084;83;21051;-57
2022/10/27 02:40:08;;;;;;;57.08;28.80;;;;;;;4.16;91.53;95514.55;1704006;83;21152;-58
2022/10/27 02:42:35;;;;;;;64.92;28.25;;;;;;;4.08;91.21;95512.97;1710805;82;20975;-59
2022/10/27 02:45:02;;;;;;;58.35;27.62;;;;;;;3.99;91.33;95514.51;1708362;83;21097;-61
2022/10/27 02:47:29;;;;;;;71.80;28.42;;;;;;;3.96;91.45;95507.91;1701640;83;21630;-60
2022/10/27 02:49:56;;;;;;;63.00;27.50;;;;;;;3.95;91.17;95511.00;1708534;83;20970;-59
2022/10/27 02:52:23;;;;;;;53.45;27.55;;;;;;;3.88;91.07;95513.13;1708680;83;21297;-60
2022/10/27 02:54:50;;;;;;;50.73;26.60;;;;;;;3.80;91.21;95512.92;1698851;83;20968;-59
2022/10/27 02:57:17;;;;;;;47.93;24.02;;;;;;;3.72;91.29;95509.97;1704266;83;21030;-59
2022/10/27 02:59:44;;;;;;;45.63;23.45;;;;;;;3.62;91.42;95516.17;1707349;83;20991;-59
2022/10/27 03:02:11;;;;;;;56.90;23.57;;;;;;;3.54;91.45;95520.61;1711158;83;21117;-59
2022/10/27 03:04:38;;;;;;;39.60;20.20;;;;;;;3.50;91.78;95515.16;1691688;83;21427;-59
2022/10/27 03:07:06;;;;;;;32.35;19.12;;;;;;;3.50;91.92;95519.23;1700508;83;21015;-58
2022/10/27 03:09:32;;;;;;;38.10;21.25;;;;;;;3.46;92.00;95522.33;1702261;83;21074;-60
2022/10/27 03:12:00;;;;;;;48.00;25.57;;;;;;;3.41;92.29;95526.78;1706221;83;21058;-59
2022/10/27 03:14:27;;;;;;;66.10;35.90;;;;;;;3.42;93.01;95526.98;1702488;82;20948;-60
2022/10/27 03:16:53;;;;;;;68.50;36.85;;;;;;;3.45;92.97;95530.29;1698837;83;21163;-59
2022/10/27 03:19:20;;;;;;;85.95;40.30;;;;;;;3.47;92.89;95530.69;1693294;83;21010;-59
2022/10/27 03:21:47;;;;;;;63.30;28.60;;;;;;;3.50;93.05;95534.19;1707038;83;21173;-59
2022/10/27 03:24:14;;;;;;;46.15;24.75;;;;;;;3.55;93.21;95541.97;1698357;83;21032;-59
2022/10/27 03:26:41;;;;;;;56.40;24.45;;;;;;;3.55;93.12;95537.13;1689997;83;21134;-59
2022/10/27 03:29:09;;;;;;;37.17;21.23;;;;;;;3.53;93.10;95541.58;1701483;83;21167;-59
2022/10/27 03:31:37;;;;;;;40.08;19.87;;;;;;;3.49;92.94;95543.52;1688994;83;21439;-59
2022/10/27 03:34:04;;;;;;;51.35;22.50;;;;;;;3.47;92.78;95548.36;1695019;83;21065;-59
2022/10/27 03:36:31;;;;;;;49.30;23.20;;;;;;;3.43;92.87;95538.82;1696531;83;21002;-58
2022/10/27 03:38:58;;;;;;;83.37;31.85;;;;;;;3.40;93.17;95541.55;1700549;83;21132;-59
2022/10/27 03:41:25;;;;;;;64.72;29.52;;;;;;;3.42;93.36;95548.14;1683296;83;21240;-60
2022/10/27 03:43:52;;;;;;;53.48;24.72;;;;;;;3.39;93.26;95545.42;1688245;83;21113;-59
2022/10/27 03:46:19;;;;;;;63.87;28.38;;;;;;;3.37;93.08;95547.72;1703963;83;21052;-59
2022/10/27 03:48:46;;;;;;;77.30;29.45;;;;;;;3.32;92.94;95548.89;1695903;83;21018;-58
2022/10/27 03:51:12;;;;;;;65.45;25.48;;;;;;;3.27;93.02;95549.23;1705708;83;21194;-57
2022/10/27 03:53:40;;;;;;;69.17;28.62;;;;;;;3.27;93.52;95543.03;1697992;83;21298;-59
2022/10/27 03:56:07;;;;;;;64.07;27.32;;;;;;;3.34;93.95;95546.56;1706674;83;21002;-59
2022/10/27 03:58:35;;;;;;;68.65;31.73;;;;;;;3.46;94.58;95548.93;1686928;83;21070;-59
2022/10/27 04:01:03;;;;;;;68.25;32.08;;;;;;;3.56;94.47;95551.72;1693192;83;21090;-58
2022/10/27 04:03:30;;;;;;;80.20;35.03;;;;;;;3.61;94.35;95545.91;1695890;83;21017;-59
2022/10/27 04:05:57;;;;;;;70.55;31.75;;;;;;;3.67;94.13;95548.45;1699339;83;21220;-59
2022/10/27 04:08:24;;;;;;;63.05;30.30;;;;;;;3.71;94.36;95554.67;1692832;83;21423;-59
2022/10/27 04:10:52;;;;;;;66.87;28.55;;;;;;;3.77;94.10;95551.80;1703700;83;21122;-59
2022/10/27 04:13:19;;;;;;;56.02;28.40;;;;;;;3.83;94.42;95545.41;1699007;82;22041;-58
2022/10/27 04:15:47;;;;;;;64.53;31.17;;;;;;;3.94;94.60;95544.27;1705389;83;21003;-58
2022/10/27 04:18:14;;;;;;;114.62;54.00;;;;;;;4.07;94.48;95548.16;1701363;83;21165;-59
2022/10/27 04:20:41;;;;;;;43.63;25.52;;;;;;;4.13;93.62;95549.93;1694168;83;21058;-58
2022/10/27 04:23:08;;;;;;;58.50;21.35;;;;;;;4.16;93.50;95546.43;1701595;83;21015;-59
2022/10/27 04:25:35;;;;;;;28.45;17.15;;;;;;;4.13;92.95;95547.20;1689277;83;21030;-59
2022/10/27 04:28:05;;;;;;;34.70;20.05;;;;;;;4.13;92.72;95553.45;1673392;84;21130;-65
2022/10/27 04:30:33;;;;;;;38.42;19.65;;;;;;;4.08;92.25;95555.77;1689601;83;21254;-60
2022/10/27 04:33:00;;;;;;;38.73;21.10;;;;;;;4.06;92.14;95557.50;1688592;83;21128;-58
2022/10/27 04:35:26;;;;;;;45.58;20.50;;;;;;;4.05;92.15;95557.30;1695660;83;21273;-60
2022/10/27 04:37:55;;;;;;;33.85;19.37;;;;;;;4.10;92.18;95564.32;1686669;83;20999;-63
2022/10/27 04:40:22;;;;;;;46.13;23.25;;;;;;;4.07;91.64;95565.86;1682641;83;21554;-63
2022/10/27 04:42:49;;;;;;;49.30;22.32;;;;;;;4.01;91.64;95566.62;1667613;84;21172;-63
2022/10/27 04:45:16;;;;;;;41.53;23.90;;;;;;;4.01;91.53;95566.05;1698206;83;21062;-60
2022/10/27 04:47:43;;;;;;;44.83;24.20;;;;;;;4.04;91.62;95566.64;1703227;83;21066;-67
2022/10/27 04:50:12;;;;;;;47.73;24.18;;;;;;;4.05;91.35;95566.83;1706490;83;21121;-63
2022/10/27 04:52:40;;;;;;;33.90;22.30;;;;;;;4.10;91.57;95559.67;1693701;83;20972;-65
2022/10/27 04:55:08;;;;;;;40.30;21.68;;;;;;;4.21;91.68;95570.58;1702381;83;21165;-63
2022/10/27 04:57:35;;;;;;;46.50;25.25;;;;;;;4.30;92.03;95571.77;1693539;83;21548;-63
2022/10/27 05:00:03;;;;;;;52.60;25.40;;;;;;;4.36;91.25;95562.03;1684240;83;21176;-64
2022/10/27 05:02:30;;;;;;;43.48;24.02;;;;;;;4.44;91.61;95566.31;1692016;83;21582;-65
2022/10/27 05:04:57;;;;;;;37.38;23.45;;;;;;;4.57;91.23;95562.65;1695922;83;20975;-64
2022/10/27 05:07:24;;;;;;;54.70;31.48;;;;;;;4.68;90.53;95577.83;1692798;83;21151;-64
2022/10/27 05:09:51;;;;;;;74.20;41.15;;;;;;;4.68;89.96;95566.14;1692180;83;20947;-62
2022/10/27 05:12:19;;;;;;;97.75;51.45;;;;;;;4.76;90.25;95580.73;1691961;83;20963;-63
2022/10/27 05:14:47;;;;;;;118.55;58.85;;;;;;;4.88;89.70;95576.27;1693079;83;21043;-63
2022/10/27 05:17:13;;;;;;;93.47;47.88;;;;;;;4.83;88.48;95579.97;1686754;83;21442;-64
2022/10/27 05:19:40;;;;;;;104.35;56.28;;;;;;;4.74;88.09;95589.89;1702446;84;22065;-63
2022/10/27 05:22:08;;;;;;;127.17;70.52;;;;;;;4.71;88.27;95585.80;1674657;84;21116;-63
2022/10/27 05:24:35;;;;;;;121.77;68.45;;;;;;;4.80;88.71;95584.23;1664329;84;21059;-64
2022/10/27 05:27:02;;;;;;;97.75;59.05;;;;;;;4.93;88.33;95588.73;1671894;83;21106;-62
2022/10/27 05:29:30;;;;;;;83.60;50.88;;;;;;;4.91;87.55;95593.20;1701237;83;21399;-63
2022/10/27 05:31:57;;;;;;;88.55;48.25;;;;;;;4.85;87.42;95594.77;1701080;83;21179;-63
2022/10/27 05:34:24;;;;;;;71.95;43.23;;;;;;;4.81;87.58;95594.56;1684624;82;21129;-64
2022/10/27 05:36:51;;;;;;;79.82;45.38;;;;;;;4.80;87.45;95601.95;1699295;83;21108;-63
2022/10/27 05:39:19;;;;;;;80.65;44.10;;;;;;;4.80;87.58;95597.86;1674544;83;20971;-62
2022/10/27 05:41:46;;;;;;;68.22;41.58;;;;;;;4.84;87.71;95603.33;1683258;82;21072;-62
2022/10/27 05:44:13;;;;;;;60.38;38.55;;;;;;;4.92;87.63;95611.12;1719490;82;21228;-64
2022/10/27 05:46:40;;;;;;;64.67;39.85;;;;;;;4.96;87.65;95602.95;1712111;82;20977;-64
2022/10/27 05:49:07;;;;;;;63.70;37.55;;;;;;;5.05;87.63;95615.59;1699152;83;20999;-62
2022/10/27 05:51:34;;;;;;;67.97;37.23;;;;;;;5.15;87.81;95621.03;1723781;81;21038;-64
2022/10/27 05:54:01;;;;;;;85.85;47.95;;;;;;;5.27;87.17;95619.28;1709816;81;21003;-64
2022/10/27 05:56:27;;;;;;;89.00;41.95;;;;;;;5.34;87.24;95619.26;1706604;82;21255;-65
2022/10/27 05:58:54;;;;;;;95.03;48.20;;;;;;;5.49;86.73;95623.52;1691215;81;20991;-61
2022/10/27 06:01:21;;;;;;;60.28;37.45;;;;;;;5.42;85.64;95619.45;1667272;82;21531;-64
2022/10/27 06:03:48;;;;;;;67.03;37.05;;;;;;;5.36;85.73;95636.01;1693843;81;21085;-63
2022/10/27 06:06:14;;;;;;;70.85;40.20;;;;;;;5.27;85.36;95623.37;1717614;82;21138;-69
2022/10/27 06:08:42;;;;;;;70.10;36.90;;;;;;;5.22;85.88;95633.32;1686721;82;21662;-63
2022/10/27 06:11:09;;;;;;;72.42;38.35;;;;;;;5.29;86.06;95631.94;1689405;82;21525;-64
2022/10/27 06:13:36;;;;;;;82.97;43.83;;;;;;;5.34;86.04;95636.98;1660916;83;21213;-61
2022/10/27 06:16:04;;;;;;;56.00;30.60;;;;;;;5.40;85.98;95644.98;1700769;81;21059;-61
2022/10/27 06:18:33;;;;;;;59.53;31.52;;;;;;;5.42;85.81;95646.14;1697133;81;21934;-63
2022/10/27 06:21:00;;;;;;;63.58;33.08;;;;;;;5.40;85.94;95644.98;1696297;83;22240;-63
2022/10/27 06:23:27;;;;;;;80.60;38.33;;;;;;;5.39;86.05;95640.11;1691537;82;21026;-58
2022/10/27 06:25:55;;;;;;;73.17;37.20;;;;;;;5.38;86.15;95635.05;1671616;82;21057;-63
2022/10/27 06:28:23;;;;;;;85.00;44.23;;;;;;;5.47;86.66;95636.78;1704447;82;21602;-64
2022/10/27 06:30:50;;;;;;;94.75;46.92;;;;;;;5.59;87.07;95641.23;1686118;83;21063;-66
2022/10/27 06:33:17;;;;;;;77.82;43.13;;;;;;;5.79;87.55;95644.34;1660420;82;21251;-65
2022/10/27 06:35:45;;;;;;;93.35;48.92;;;;;;;5.98;87.47;95646.63;1703988;81;21085;-64
2022/10/27 06:38:15;;;;;;;73.60;41.85;;;;;;;6.12;87.35;95635.66;1637363;86;21146;-63
2022/10/27 06:40:43;;;;;;;75.65;39.53;;;;;;;6.18;86.07;95638.92;1659900;84;21049;-69
2022/10/27 06:43:13;;;;;;;70.78;39.42;;;;;;;6.08;85.16;95640.33;1621728;84;21563;-65
2022/10/27 06:45:44;;;;;;;71.57;40.48;;;;;;;5.94;85.05;95641.77;1664585;85;21870;-64
2022/10/27 06:48:12;;;;;;;47.17;28.65;;;;;;;5.80;84.97;95645.91;1623103;86;21045;-64
2022/10/27 06:50:43;;;;;;;57.50;31.80;;;;;;;5.68;85.48;95651.17;1651939;84;21099;-64
2022/10/27 06:53:10;;;;;;;50.28;26.85;;;;;;;5.63;85.90;95648.06;1667536;83;21021;-61
2022/10/27 06:55:38;;;;;;;50.88;30.30;;;;;;;5.62;86.49;95642.41;1645774;84;21361;-69
2022/10/27 06:58:05;;;;;;;41.80;27.58;;;;;;;5.67;86.91;95647.46;1643560;86;21400;-64
2022/10/27 07:00:33;;;;;;;54.08;29.85;;;;;;;5.72;87.29;95645.69;1640396;85;21239;-65
2022/10/27 07:03:02;;;;;;;49.35;32.85;;;;;;;5.80;87.42;95648.63;1638731;84;21001;-66
2022/10/27 07:05:29;;;;;;;51.55;30.40;;;;;;;5.86;87.61;95645.69;1595611;86;21093;-70
2022/10/27 07:07:56;;;;;;;48.90;30.15;;;;;;;5.98;88.31;95641.17;1625357;85;21595;-66
2022/10/27 07:10:23;;;;;;;68.40;33.08;;;;;;;6.08;88.22;95649.89;1605451;87;21902;-65
2022/10/27 07:12:57;;;;;;;56.23;29.27;;;;;;;6.11;88.33;95650.46;1654064;83;21059;-64
2022/10/27 07:15:27;;;;;;;53.75;33.53;;;;;;;6.17;88.57;95657.09;1648169;84;21089;-66
2022/10/27 07:18:00;;;;;;;52.48;29.65;;;;;;;6.22;88.56;95652.00;1621939;85;21079;-65
2022/10/27 07:20:29;;;;;;;40.75;27.35;;;;;;;6.31;88.83;95648.84;1666026;83;21037;-67
2022/10/27 07:22:57;;;;;;;44.30;28.23;;;;;;;6.43;88.95;95652.47;1635514;85;21769;-66
2022/10/27 07:25:26;;;;;;;38.02;25.27;;;;;;;6.56;88.92;95650.84;1703281;81;21022;-65
2022/10/27 07:27:54;;;;;;;43.80;26.93;;;;;;;6.72;88.87;95646.44;1714904;81;21140;-64
2022/10/27 07:30:24;;;;;;;46.08;27.27;;;;;;;6.78;88.38;95649.53;1718275;81;21149;-66
2022/10/27 07:32:51;;;;;;;39.40;24.30;;;;;;;6.83;88.44;95644.42;1665639;82;21515;-68
2022/10/27 07:35:18;;;;;;;65.05;30.90;;;;;;;6.97;89.10;95643.55;1682525;83;21244;-64
2022/10/27 07:37:46;;;;;;;45.35;26.70;;;;;;;7.17;89.62;95648.09;1691654;81;21092;-66
2022/10/27 07:40:16;;;;;;;40.52;21.80;;;;;;;7.38;89.40;95644.56;1677388;83;21112;-66
2022/10/27 07:42:53;;;;;;;26.80;15.72;;;;;;;7.56;88.77;95651.26;1701305;82;22564;-64
2022/10/27 07:45:21;;;;;;;23.60;14.13;;;;;;;7.62;88.36;95643.57;1688388;83;21478;-63
2022/10/27 07:47:54;;;;;;;31.05;16.50;;;;;;;7.72;88.09;95640.55;1700603;82;21218;-64
2022/10/27 07:50:27;;;;;;;30.02;15.70;;;;;;;7.86;88.03;95643.91;1707243;82;21646;-64
2022/10/27 07:52:54;;;;;;;31.25;17.98;;;;;;;7.99;87.82;95636.72;1717010;81;21102;-64
2022/10/27 07:55:24;;;;;;;20.88;16.23;;;;;;;8.07;87.77;95640.92;1713990;81;21080;-63
2022/10/27 07:58:01;;;;;;;22.55;15.20;;;;;;;8.17;87.76;95641.41;1709832;81;21016;-64
2022/10/27 08:00:28;;;;;;;20.00;14.20;;;;;;;8.28;87.67;95636.59;1681425;83;21542;-62
2022/10/27 08:03:01;;;;;;;27.93;15.80;;;;;;;8.48;87.85;95643.59;1672335;83;21122;-64
2022/10/27 08:05:29;;;;;;;26.10;17.27;;;;;;;8.62;87.50;95649.66;1704173;82;21434;-62
2022/10/27 08:08:02;;;;;;;31.27;17.35;;;;;;;8.76;87.44;95645.36;1698872;83;21526;-64
2022/10/27 08:10:32;;;;;;;26.40;17.05;;;;;;;8.92;87.30;95642.17;1712983;81;21514;-64
2022/10/27 08:12:59;;;;;;;30.08;21.40;;;;;;;9.05;86.77;95642.39;1719303;81;21251;-66
2022/10/27 08:15:26;;;;;;;24.52;16.60;;;;;;;9.19;86.56;95643.53;1676146;81;21051;-65
2022/10/27 08:17:55;;;;;;;23.98;16.00;;;;;;;9.35;86.08;95653.27;1677958;84;21022;-65
2022/10/27 08:20:23;;;;;;;26.42;16.42;;;;;;;9.54;86.03;95651.19;1668522;83;21082;-64
2022/10/27 08:22:58;;;;;;;20.80;14.18;;;;;;;9.77;85.61;95647.84;1709264;81;21029;-61
2022/10/27 08:25:25;;;;;;;16.23;10.78;;;;;;;9.94;84.96;95650.08;1698406;81;21244;-63
2022/10/27 08:27:52;;;;;;;17.17;9.53;;;;;;;10.10;84.47;95647.45;1679962;82;21216;-63
2022/10/27 08:30:20;;;;;;;19.30;9.83;;;;;;;10.32;83.98;95644.48;1681999;82;21018;-66
2022/10/27 08:32:49;;;;;;;15.93;10.05;;;;;;;10.56;83.17;95637.69;1696733;82;21386;-63
2022/10/27 08:35:17;;;;;;;19.35;9.18;;;;;;;10.74;82.67;95644.36;1668964;82;21022;-64
2022/10/27 08:37:43;;;;;;;26.97;15.05;;;;;;;10.88;82.13;95637.17;1704454;82;22232;-65
2022/10/27 08:40:10;;;;;;;12.55;10.32;;;;;;;11.04;81.40;95641.33;1690986;82;21199;-68
2022/10/27 08:43:22;;;;;;;9.15;7.10;;;;;;;11.19;80.92;95637.05;1699445;82;21054;-71
2022/10/27 08:46:14;;;;;;;9.68;7.58;;;;;;;11.40;80.21;95630.45;1693329;81;21105;-67
2022/10/27 08:48:43;;;;;;;20.30;8.70;;;;;;;11.69;79.18;95631.92;1725814;81;21609;-68
2022/10/27 08:51:14;;;;;;;12.15;7.72;;;;;;;11.97;78.66;95620.14;1682138;83;21205;-67
2022/10/27 08:53:41;;;;;;;11.10;8.50;;;;;;;12.31;78.11;95626.70;1696152;80;21102;-67
2022/10/27 08:56:10;;;;;;;11.65;8.30;;;;;;;12.67;76.66;95618.92;1644682;82;21010;-65
2022/10/27 08:58:44;;;;;;;12.35;8.03;;;;;;;12.99;75.50;95621.53;1656928;83;21015;-63
2022/10/27 09:01:36;;;;;;;10.35;8.40;;;;;;;13.26;74.18;95618.50;1685428;82;21164;-64
2022/10/27 09:04:33;;;;;;;17.12;10.00;;;;;;;13.45;73.34;95618.11;1698909;81;21241;-64
2022/10/27 09:07:20;;;;;;;23.50;10.32;;;;;;;13.66;72.26;95611.88;1671107;83;21061;-62
2022/10/27 09:10:00;;;;;;;18.42;11.80;;;;;;;13.75;72.18;95615.51;1695371;82;21074;-65
2022/10/27 09:12:53;;;;;;;36.38;11.43;;;;;;;13.93;71.87;95611.53;1708946;82;21052;-63
2022/10/27 09:15:43;;;;;;;15.18;8.40;;;;;;;14.26;71.32;95603.68;1657759;82;21135;-65
2022/10/27 09:18:42;;;;;;;22.70;10.00;;;;;;;14.72;70.55;95614.02;1676903;83;21345;-67
2022/10/27 09:21:20;;;;;;;12.35;9.00;;;;;;;15.17;68.74;95604.53;1693952;83;20959;-63
2022/10/27 09:23:53;;;;;;;12.88;7.67;;;;;;;15.75;67.29;95597.04;1677035;83;20990;-66
2022/10/27 09:26:25;;;;;;;11.83;5.62;;;;;;;16.23;66.02;95594.78;1697218;82;21471;-66
2022/10/27 09:28:53;;;;;;;10.30;6.50;;;;;;;16.55;64.21;95592.80;1715124;81;21081;-64
2022/10/27 09:31:40;;;;;;;19.10;9.40;;;;;;;16.55;63.15;95594.19;1708824;82;21476;-64
2022/10/27 09:34:21;;;;;;;12.05;7.55;;;;;;;16.44;63.39;95596.66;1709830;81;21165;-67
2022/10/27 09:36:48;;;;;;;12.28;7.28;;;;;;;16.49;63.66;95593.24;1703277;82;21011;-66
2022/10/27 09:39:15;;;;;;;14.05;7.22;;;;;;;16.73;63.98;95588.59;1706795;82;20991;-67
2022/10/27 09:41:42;;;;;;;22.50;9.73;;;;;;;17.07;63.36;95588.20;1700155;82;21129;-66
2022/10/27 09:44:20;;;;;;;12.37;8.23;;;;;;;17.48;62.15;95582.63;1699466;83;21382;-68
2022/10/27 09:46:52;;;;;;;27.85;8.80;;;;;;;17.79;59.63;95586.50;1681352;83;21493;-66
2022/10/27 09:49:23;;;;;;;39.00;9.43;;;;;;;17.98;59.14;95581.72;1688627;83;21468;-67
2022/10/27 09:51:53;;;;;;;18.15;9.70;;;;;;;18.20;58.72;95582.16;1693554;82;21191;-67
2022/10/27 09:54:32;;;;;;;;;;;;;;;18.50;59.23;95578.99;1724381;81;21062;-67
2022/10/27 09:57:15;;;;;;;11.85;7.03;;;;;;;18.88;58.58;95577.56;1708077;82;21147;-66
2022/10/27 09:59:43;;;;;;;15.83;7.75;;;;;;;19.34;56.58;95570.23;1694204;82;21153;-64
2022/10/27 10:02:30;;;;;;;13.65;6.80;;;;;;;20.06;54.57;95570.66;1709091;82;21140;-66
2022/10/27 10:04:58;;;;;;;12.37;5.85;;;;;;;20.75;53.22;95570.45;1710866;82;21213;-67
2022/10/27 10:07:35;;;;;;;12.70;6.53;;;;;;;21.15;50.43;95564.75;1669315;82;21013;-66
2022/10/27 10:10:08;;;;;;;8.65;6.65;;;;;;;21.34;50.97;95573.70;1703031;82;21747;-65
2022/10/27 10:12:35;;;;;;;22.37;8.98;;;;;;;21.73;50.00;95570.58;1656914;84;21032;-65
2022/10/27 10:15:16;;;;;;;13.55;7.20;;;;;;;22.18;49.69;95568.92;1640658;86;21079;-66
2022/10/27 10:17:59;;;;;;;24.70;7.00;;;;;;;22.62;49.48;95564.91;1654187;83;21134;-67
2022/10/27 10:20:41;;;;;;;11.25;5.50;;;;;;;23.10;46.51;95569.73;1636185;85;21093;-65
2022/10/27 10:23:25;;;;;;;22.95;5.85;;;;;;;23.54;45.51;95571.16;1685308;84;21251;-67
2022/10/27 10:25:56;;;;;;;14.68;4.03;;;;;;;24.22;44.92;95568.52;1685461;85;21107;-65
2022/10/27 10:28:36;;;;;;;8.80;4.37;;;;;;;24.99;42.29;95566.77;1662018;85;21859;-65
2022/10/27 10:31:07;;;;;;;9.63;4.55;;;;;;;25.47;41.47;95569.79;1674798;84;21081;-67
2022/10/27 10:33:36;;;;;;;7.03;3.15;;;;;;;25.68;40.00;95568.06;1664140;84;21106;-67
2022/10/27 10:36:37;;;;;;;10.25;2.80;;;;;;;25.71;39.48;95562.12;1656247;85;21532;-65
2022/10/27 10:39:23;;;;;;;8.48;3.65;;;;;;;25.41;37.19;95559.19;1653406;85;21556;-68
2022/10/27 10:42:13;;;;;;;24.35;3.58;;;;;;;24.52;37.49;95566.63;1652171;85;21051;-65
2022/10/27 10:44:41;;;;;;;6.75;3.77;;;;;;;24.26;37.51;95561.98;1658677;85;21190;-66
2022/10/27 10:47:29;;;;;;;35.65;28.07;;;;;;;24.49;35.73;95554.34;1648286;85;21539;-68
2022/10/27 10:50:00;;;;;;;10.50;3.92;;;;;;;24.73;35.33;95556.56;1677177;82;21183;-66
2022/10/27 10:52:36;;;;;;;8.30;4.47;;;;;;;25.09;34.61;95549.69;1705087;82;21114;-63
2022/10/27 10:55:09;;;;;;;102.55;73.25;;;;;;;25.36;34.37;95550.92;1691317;83;21066;-66
2022/10/27 10:57:44;;;;;;;26.20;18.77;;;;;;;25.65;33.12;95557.19;1702652;82;21500;-62
2022/10/27 11:00:16;;;;;;;35.78;29.35;;;;;;;25.78;33.54;95555.14;1708505;81;21217;-62
2022/10/27 11:02:45;;;;;;;29.25;25.62;;;;;;;25.90;32.37;95559.42;1708965;81;21881;-65
2022/10/27 11:05:22;;;;;;;21.12;17.82;;;;;;;26.11;32.58;95549.98;1699862;82;21626;-63
2022/10/27 11:07:51;;;;;;;18.80;12.20;;;;;;;26.51;32.50;95552.59;1704408;81;21192;-62
2022/10/27 11:10:39;;;;;;;27.22;24.57;;;;;;;27.01;31.59;95548.45;1689746;82;21492;-62
2022/10/27 11:13:20;;;;;;;13.93;5.83;;;;;;;26.99;30.88;95546.81;1689021;82;21137;-64
2022/10/27 11:16:01;;;;;;;8.23;4.42;;;;;;;27.07;31.28;95546.30;1710399;82;21819;-64
2022/10/27 11:18:51;;;;;;;10.85;4.00;;;;;;;27.46;30.69;95545.10;1733978;81;21128;-64
2022/10/27 11:21:27;;;;;;;10.10;3.35;;;;;;;27.83;29.69;95537.94;1697486;81;21085;-63
2022/10/27 11:23:58;;;;;;;10.70;4.78;;;;;;;28.15;29.53;95537.19;1668942;82;21046;-64
2022/10/27 11:26:37;;;;;;;14.60;3.72;;;;;;;28.28;29.86;95533.73;1695153;82;21051;-63
2022/10/27 11:29:26;;;;;;;3.98;3.05;;;;;;;28.44;29.55;95534.73;1711383;82;21129;-65
2022/10/27 11:32:18;;;;;;;14.33;4.33;;;;;;;28.80;27.45;95538.61;1682833;83;21144;-63
2022/10/27 11:35:11;;;;;;;5.80;2.60;;;;;;;28.66;27.78;95544.18;1673987;85;21498;-65
2022/10/27 11:37:59;;;;;;;8.08;2.77;;;;;;;28.68;27.79;95538.08;1645312;84;21085;-62
2022/10/27 11:40:53;;;;;;;6.40;2.12;;;;;;;28.82;27.35;95538.17;1668220;84;21541;-62
2022/10/27 11:43:32;;;;;;;4.40;2.52;;;;;;;28.86;27.70;95534.98;1635730;85;22703;-68
2022/10/27 11:46:20;;;;;;;3.80;3.45;;;;;;;29.16;28.09;95536.80;1663886;83;21081;-64
2022/10/27 11:49:14;;;;;;;3.45;3.15;;;;;;;29.40;26.49;95539.31;1667676;84;21001;-66